NCAR-RAP Real-Time Weather Data

Output produced by METARs form (06 May 2021  17:06 UTC)
found at http://weather.rap.ucar.edu/surface/
 
KMRB 061653Z 32013G18KT 10SM FEW050 15/01 A3003 RMK AO2 SLP169 T01500011
KMRB 061553Z VRB04KT 10SM CLR 14/01 A3006 RMK AO2 SLP179 T01390006
KMRB 061453Z 10SM CLR 13/02 A3008 RMK AO2 SLP185 T01330017 58002
KMRB 061353Z 33012G17KT 10SM CLR 12/01 A3009 RMK AO2 SLP188 T01220011
KMRB 061253Z 33011KT 10SM CLR 11/01 A3009 RMK AO2 SLP189 T01060011
KMRB 061153Z 34010KT 10SM CLR 09/01 A3008 RMK AO2 SLP188 70009 T00940006 10100 20072 51015
KMRB 061053Z 32006KT 10SM CLR 08/01 A3008 RMK AO2 SLP185 T00780006
KMRB 060953Z AUTO 33005KT 10SM CLR 08/01 A3006 RMK AO2 SLP180 T00780006
KMRB 060853Z AUTO 32008KT 10SM OVC048 09/00 A3004 RMK AO2 SLP172 T00890000 53007
KMRB 060753Z AUTO 33008KT 10SM OVC046 09/00 A3002 RMK AO2 SLP166 T00940000
KMRB 060653Z AUTO 32012KT 10SM CLR 09/M01 A3002 RMK AO2 SLP166 T00891006
KMRB 060553Z AUTO 33008KT 10SM BKN050 10/01 A3002 RMK AO2 SLP164 T01000006 10139 20100 51014
KMRB 060453Z AUTO 35011G18KT 10SM SCT045 BKN055 11/02 A3002 RMK AO2 SLP163 T01110017 402390111
KMRB 060353Z AUTO 33013G19KT 10SM OVC055 12/02 A3000 RMK AO2 SLP155 T01170022
KMRB 060253Z AUTO 35010KT 10SM FEW044 OVC055 13/04 A2998 RMK AO2 SLP149 T01280039 51023
KMRB 060153Z 32010KT 10SM FEW060 13/04 A2996 RMK AO2 SLP145 T01280044